Thargomindah, Australia
Current Conditions -  °F | °C
As of 9:00 PM on Wednesday 26 Nov 2014 (Local Time) from YBCV Reporting Station
Clear Clear  
Wind Chill: 28°   Ceiling: Unl
Heat Index: 28°   Visibility: 6mi
Dew Point: 11°   Wind: 7mph
Humidity: 35%   Direction: 100°E
Pressure: 29.97"   Gusts: NA
Location:  28°S, 143.82°E
Report Text: YBCV 261100Z AUTO 10006KT 9999 // NCD 28/11 Q1015
Loading
Personal Weather Stations






























Interactive Weather Map New forecast layout! Learn more

10-Day Weather Forecast

Advertisements
Track Severe Weather on mobile